sensor_id;sensor_type;location;lat;lon;timestamp;P1;durP1;ratioP1;P2;durP2;ratioP2
42194;SDS011;27863;49.440;11.102;2022-09-16T00:00:24;8.85;;;7.95;;
42194;SDS011;27863;49.440;11.102;2022-09-16T00:03:26;9.20;;;8.40;;
42194;SDS011;27863;49.440;11.102;2022-09-16T00:06:27;8.13;;;7.43;;
42194;SDS011;27863;49.440;11.102;2022-09-16T00:09:28;9.68;;;8.70;;
42194;SDS011;27863;49.440;11.102;2022-09-16T00:12:29;9.90;;;8.55;;
42194;SDS011;27863;49.440;11.102;2022-09-16T00:15:29;8.27;;;7.27;;
42194;SDS011;27863;49.440;11.102;2022-09-16T00:18:30;8.30;;;7.60;;
42194;SDS011;27863;49.440;11.102;2022-09-16T00:21:32;8.88;;;8.15;;
42194;SDS011;27863;49.440;11.102;2022-09-16T00:24:32;8.18;;;7.47;;
42194;SDS011;27863;49.440;11.102;2022-09-16T00:27:33;9.30;;;8.40;;
42194;SDS011;27863;49.440;11.102;2022-09-16T00:30:33;8.98;;;8.27;;
42194;SDS011;27863;49.440;11.102;2022-09-16T00:33:34;8.63;;;7.93;;
42194;SDS011;27863;49.440;11.102;2022-09-16T00:36:35;8.25;;;7.53;;
42194;SDS011;27863;49.440;11.102;2022-09-16T00:39:35;10.05;;;8.57;;
42194;SDS011;27863;49.440;11.102;2022-09-16T00:42:37;7.85;;;7.05;;
42194;SDS011;27863;49.440;11.102;2022-09-16T00:45:38;11.20;;;7.38;;
42194;SDS011;27863;49.440;11.102;2022-09-16T00:48:39;6.85;;;6.25;;
42194;SDS011;27863;49.440;11.102;2022-09-16T00:51:39;7.72;;;7.13;;
42194;SDS011;27863;49.440;11.102;2022-09-16T00:54:41;6.60;;;6.00;;
42194;SDS011;27863;49.440;11.102;2022-09-16T00:57:42;7.60;;;6.95;;
42194;SDS011;27863;49.440;11.102;2022-09-16T01:00:43;10.40;;;6.15;;
42194;SDS011;27863;49.440;11.102;2022-09-16T01:03:45;7.20;;;6.60;;
42194;SDS011;27863;49.440;11.102;2022-09-16T01:06:48;6.40;;;5.90;;
42194;SDS011;27863;49.440;11.102;2022-09-16T01:09:49;6.40;;;5.90;;
42194;SDS011;27863;49.440;11.102;2022-09-16T01:12:54;8.00;;;7.35;;
42194;SDS011;27863;49.440;11.102;2022-09-16T01:19:28;7.45;;;6.30;;
42194;SDS011;27863;49.440;11.102;2022-09-16T01:38:55;5.82;;;5.32;;
42194;SDS011;27863;49.440;11.102;2022-09-16T01:48:31;5.67;;;4.30;;
42194;SDS011;27863;49.440;11.102;2022-09-16T01:51:39;6.07;;;5.57;;
42194;SDS011;27863;49.440;11.102;2022-09-16T02:01:21;5.75;;;5.10;;
42194;SDS011;27863;49.440;11.102;2022-09-16T02:04:30;5.32;;;4.82;;
42194;SDS011;27863;49.440;11.102;2022-09-16T02:07:35;4.55;;;4.25;;
42194;SDS011;27863;49.440;11.102;2022-09-16T02:10:49;4.87;;;4.50;;
42194;SDS011;27863;49.440;11.102;2022-09-16T02:14:05;5.25;;;4.85;;
42194;SDS011;27863;49.440;11.102;2022-09-16T02:17:16;4.57;;;4.13;;
42194;SDS011;27863;49.440;11.102;2022-09-16T02:20:20;4.78;;;4.38;;
42194;SDS011;27863;49.440;11.102;2022-09-16T02:23:24;5.25;;;4.72;;
42194;SDS011;27863;49.440;11.102;2022-09-16T02:26:28;6.53;;;4.80;;
42194;SDS011;27863;49.440;11.102;2022-09-16T02:29:35;5.35;;;4.95;;
42194;SDS011;27863;49.440;11.102;2022-09-16T02:32:40;4.73;;;4.33;;
42194;SDS011;27863;49.440;11.102;2022-09-16T02:35:43;8.10;;;4.65;;
42194;SDS011;27863;49.440;11.102;2022-09-16T02:38:49;4.82;;;4.35;;
42194;SDS011;27863;49.440;11.102;2022-09-16T02:41:53;5.80;;;4.00;;
42194;SDS011;27863;49.440;11.102;2022-09-16T02:44:54;6.85;;;4.32;;
42194;SDS011;27863;49.440;11.102;2022-09-16T02:48:03;4.70;;;4.30;;
42194;SDS011;27863;49.440;11.102;2022-09-16T02:57:44;4.37;;;3.97;;
42194;SDS011;27863;49.440;11.102;2022-09-16T03:00:45;3.53;;;3.22;;
42194;SDS011;27863;49.440;11.102;2022-09-16T03:03:47;6.10;;;3.57;;
42194;SDS011;27863;49.440;11.102;2022-09-16T03:06:48;4.37;;;3.97;;
42194;SDS011;27863;49.440;11.102;2022-09-16T03:09:50;4.47;;;3.73;;
42194;SDS011;27863;49.440;11.102;2022-09-16T03:12:57;4.47;;;4.15;;
42194;SDS011;27863;49.440;11.102;2022-09-16T03:16:09;4.10;;;3.13;;
42194;SDS011;27863;49.440;11.102;2022-09-16T03:38:22;6.07;;;3.60;;
42194;SDS011;27863;49.440;11.102;2022-09-16T03:41:23;4.57;;;3.93;;
42194;SDS011;27863;49.440;11.102;2022-09-16T03:44:34;5.57;;;4.13;;
42194;SDS011;27863;49.440;11.102;2022-09-16T03:47:36;6.17;;;4.13;;
42194;SDS011;27863;49.440;11.102;2022-09-16T03:50:36;4.22;;;3.85;;
42194;SDS011;27863;49.440;11.102;2022-09-16T03:53:37;4.00;;;3.37;;
42194;SDS011;27863;49.440;11.102;2022-09-16T03:56:38;3.80;;;3.50;;
42194;SDS011;27863;49.440;11.102;2022-09-16T03:59:38;3.50;;;3.30;;
42194;SDS011;27863;49.440;11.102;2022-09-16T04:02:39;4.55;;;4.15;;
42194;SDS011;27863;49.440;11.102;2022-09-16T04:05:39;3.73;;;3.43;;
42194;SDS011;27863;49.440;11.102;2022-09-16T04:08:39;3.40;;;3.10;;
42194;SDS011;27863;49.440;11.102;2022-09-16T04:11:43;4.18;;;3.50;;
42194;SDS011;27863;49.440;11.102;2022-09-16T04:14:43;5.17;;;4.60;;
42194;SDS011;27863;49.440;11.102;2022-09-16T04:17:44;3.70;;;3.07;;
42194;SDS011;27863;49.440;11.102;2022-09-16T04:20:44;4.63;;;4.23;;
42194;SDS011;27863;49.440;11.102;2022-09-16T04:23:44;4.07;;;3.30;;
42194;SDS011;27863;49.440;11.102;2022-09-16T04:26:45;5.93;;;3.67;;
42194;SDS011;27863;49.440;11.102;2022-09-16T04:29:46;4.10;;;3.70;;
42194;SDS011;27863;49.440;11.102;2022-09-16T04:32:46;5.30;;;3.93;;
42194;SDS011;27863;49.440;11.102;2022-09-16T04:35:47;5.10;;;3.93;;
42194;SDS011;27863;49.440;11.102;2022-09-16T04:38:47;4.90;;;4.10;;
42194;SDS011;27863;49.440;11.102;2022-09-16T04:41:48;3.60;;;3.33;;
42194;SDS011;27863;49.440;11.102;2022-09-16T04:44:49;5.63;;;4.27;;
42194;SDS011;27863;49.440;11.102;2022-09-16T04:47:56;3.83;;;3.53;;
42194;SDS011;27863;49.440;11.102;2022-09-16T04:51:09;4.37;;;4.03;;
42194;SDS011;27863;49.440;11.102;2022-09-16T04:54:11;5.53;;;5.03;;
42194;SDS011;27863;49.440;11.102;2022-09-16T04:57:12;4.30;;;3.80;;
42194;SDS011;27863;49.440;11.102;2022-09-16T05:00:12;6.57;;;4.23;;
42194;SDS011;27863;49.440;11.102;2022-09-16T05:03:14;4.28;;;3.85;;
42194;SDS011;27863;49.440;11.102;2022-09-16T05:06:16;3.17;;;2.90;;
42194;SDS011;27863;49.440;11.102;2022-09-16T05:09:18;5.57;;;3.47;;
42194;SDS011;27863;49.440;11.102;2022-09-16T05:12:21;4.20;;;3.83;;
42194;SDS011;27863;49.440;11.102;2022-09-16T05:15:23;9.90;;;3.60;;
42194;SDS011;27863;49.440;11.102;2022-09-16T05:18:24;4.37;;;3.23;;
42194;SDS011;27863;49.440;11.102;2022-09-16T05:21:25;4.70;;;3.77;;
42194;SDS011;27863;49.440;11.102;2022-09-16T05:24:27;3.50;;;3.20;;
42194;SDS011;27863;49.440;11.102;2022-09-16T05:27:29;4.97;;;3.67;;
42194;SDS011;27863;49.440;11.102;2022-09-16T05:30:30;3.33;;;3.03;;
42194;SDS011;27863;49.440;11.102;2022-09-16T05:33:31;5.23;;;3.40;;
42194;SDS011;27863;49.440;11.102;2022-09-16T05:36:32;4.43;;;3.37;;
42194;SDS011;27863;49.440;11.102;2022-09-16T05:39:34;3.30;;;3.00;;
42194;SDS011;27863;49.440;11.102;2022-09-16T05:42:34;3.83;;;3.42;;
42194;SDS011;27863;49.440;11.102;2022-09-16T05:45:35;3.67;;;3.37;;
42194;SDS011;27863;49.440;11.102;2022-09-16T05:48:35;5.35;;;3.40;;
42194;SDS011;27863;49.440;11.102;2022-09-16T05:51:36;5.80;;;3.10;;
42194;SDS011;27863;49.440;11.102;2022-09-16T05:54:38;7.20;;;3.85;;
42194;SDS011;27863;49.440;11.102;2022-09-16T05:57:38;6.13;;;3.43;;
42194;SDS011;27863;49.440;11.102;2022-09-16T06:00:39;5.55;;;3.53;;
42194;SDS011;27863;49.440;11.102;2022-09-16T06:03:41;3.60;;;2.53;;
42194;SDS011;27863;49.440;11.102;2022-09-16T06:06:43;3.65;;;3.05;;
42194;SDS011;27863;49.440;11.102;2022-09-16T06:09:44;3.77;;;2.70;;
42194;SDS011;27863;49.440;11.102;2022-09-16T06:12:46;3.78;;;3.25;;
42194;SDS011;27863;49.440;11.102;2022-09-16T06:15:47;3.75;;;2.83;;
42194;SDS011;27863;49.440;11.102;2022-09-16T06:18:54;3.38;;;2.92;;
42194;SDS011;27863;49.440;11.102;2022-09-16T06:21:54;4.43;;;2.63;;
42194;SDS011;27863;49.440;11.102;2022-09-16T06:24:55;3.28;;;2.90;;
42194;SDS011;27863;49.440;11.102;2022-09-16T06:27:55;6.43;;;3.53;;
42194;SDS011;27863;49.440;11.102;2022-09-16T06:30:59;3.80;;;2.47;;
42194;SDS011;27863;49.440;11.102;2022-09-16T06:34:26;2.97;;;2.00;;
42194;SDS011;27863;49.440;11.102;2022-09-16T06:37:27;3.87;;;2.70;;
42194;SDS011;27863;49.440;11.102;2022-09-16T06:40:27;4.30;;;2.10;;
42194;SDS011;27863;49.440;11.102;2022-09-16T06:43:28;4.10;;;2.03;;
42194;SDS011;27863;49.440;11.102;2022-09-16T06:46:29;6.65;;;2.65;;
42194;SDS011;27863;49.440;11.102;2022-09-16T06:49:29;3.45;;;2.10;;
42194;SDS011;27863;49.440;11.102;2022-09-16T06:52:30;4.43;;;2.37;;
42194;SDS011;27863;49.440;11.102;2022-09-16T06:55:31;2.50;;;2.30;;
42194;SDS011;27863;49.440;11.102;2022-09-16T06:58:34;4.35;;;2.83;;
42194;SDS011;27863;49.440;11.102;2022-09-16T07:01:35;4.13;;;2.07;;
42194;SDS011;27863;49.440;11.102;2022-09-16T07:04:36;6.10;;;2.45;;
42194;SDS011;27863;49.440;11.102;2022-09-16T07:07:37;3.20;;;2.33;;
42194;SDS011;27863;49.440;11.102;2022-09-16T07:10:38;2.78;;;1.80;;
42194;SDS011;27863;49.440;11.102;2022-09-16T07:13:40;2.40;;;1.95;;
42194;SDS011;27863;49.440;11.102;2022-09-16T07:16:41;2.90;;;1.98;;
42194;SDS011;27863;49.440;11.102;2022-09-16T07:19:42;3.53;;;1.80;;
42194;SDS011;27863;49.440;11.102;2022-09-16T07:22:43;9.68;;;2.63;;
42194;SDS011;27863;49.440;11.102;2022-09-16T07:25:44;3.60;;;2.35;;
42194;SDS011;27863;49.440;11.102;2022-09-16T07:28:45;2.47;;;1.90;;
42194;SDS011;27863;49.440;11.102;2022-09-16T07:31:46;6.50;;;2.00;;
42194;SDS011;27863;49.440;11.102;2022-09-16T07:34:47;4.82;;;2.60;;
42194;SDS011;27863;49.440;11.102;2022-09-16T07:37:49;3.42;;;1.90;;
42194;SDS011;27863;49.440;11.102;2022-09-16T07:40:49;2.40;;;1.63;;
42194;SDS011;27863;49.440;11.102;2022-09-16T07:43:54;3.28;;;1.85;;
42194;SDS011;27863;49.440;11.102;2022-09-16T07:46:58;2.05;;;1.55;;
42194;SDS011;27863;49.440;11.102;2022-09-16T07:49:58;1.42;;;1.33;;
42194;SDS011;27863;49.440;11.102;2022-09-16T07:52:59;1.40;;;1.00;;
42194;SDS011;27863;49.440;11.102;2022-09-16T07:56:00;3.42;;;1.60;;
42194;SDS011;27863;49.440;11.102;2022-09-16T07:59:03;2.28;;;1.30;;
42194;SDS011;27863;49.440;11.102;2022-09-16T08:02:05;1.85;;;1.50;;
42194;SDS011;27863;49.440;11.102;2022-09-16T08:05:05;1.42;;;1.13;;
42194;SDS011;27863;49.440;11.102;2022-09-16T08:08:06;3.40;;;1.10;;
42194;SDS011;27863;49.440;11.102;2022-09-16T08:11:08;2.78;;;1.35;;
42194;SDS011;27863;49.440;11.102;2022-09-16T08:14:09;1.60;;;1.50;;
42194;SDS011;27863;49.440;11.102;2022-09-16T08:17:10;2.15;;;1.27;;
42194;SDS011;27863;49.440;11.102;2022-09-16T08:20:11;2.47;;;1.27;;
42194;SDS011;27863;49.440;11.102;2022-09-16T08:23:11;1.90;;;1.13;;
42194;SDS011;27863;49.440;11.102;2022-09-16T08:26:13;1.45;;;1.30;;
42194;SDS011;27863;49.440;11.102;2022-09-16T08:29:15;3.67;;;1.20;;
42194;SDS011;27863;49.440;11.102;2022-09-16T08:32:15;1.45;;;1.10;;
42194;SDS011;27863;49.440;11.102;2022-09-16T08:35:17;4.90;;;1.55;;
42194;SDS011;27863;49.440;11.102;2022-09-16T08:38:19;1.25;;;0.82;;
42194;SDS011;27863;49.440;11.102;2022-09-16T08:48:23;2.15;;;0.90;;
42194;SDS011;27863;49.440;11.102;2022-09-16T08:51:34;2.58;;;1.17;;
42194;SDS011;27863;49.440;11.102;2022-09-16T08:54:39;1.15;;;1.02;;
42194;SDS011;27863;49.440;11.102;2022-09-16T08:57:43;1.85;;;1.02;;
42194;SDS011;27863;49.440;11.102;2022-09-16T09:00:53;3.08;;;1.13;;
42194;SDS011;27863;49.440;11.102;2022-09-16T09:03:55;2.58;;;1.00;;
42194;SDS011;27863;49.440;11.102;2022-09-16T09:06:58;1.02;;;0.93;;
42194;SDS011;27863;49.440;11.102;2022-09-16T09:10:12;3.83;;;1.77;;
42194;SDS011;27863;49.440;11.102;2022-09-16T09:17:08;1.85;;;1.10;;
42194;SDS011;27863;49.440;11.102;2022-09-16T09:26:51;3.13;;;1.70;;
42194;SDS011;27863;49.440;11.102;2022-09-16T09:30:08;2.42;;;1.10;;
42194;SDS011;27863;49.440;11.102;2022-09-16T09:39:53;6.88;;;1.30;;
42194;SDS011;27863;49.440;11.102;2022-09-16T09:46:25;2.95;;;1.30;;
42194;SDS011;27863;49.440;11.102;2022-09-16T09:49:31;2.95;;;1.42;;
42194;SDS011;27863;49.440;11.102;2022-09-16T09:53:02;2.22;;;1.08;;
42194;SDS011;27863;49.440;11.102;2022-09-16T09:59:32;1.98;;;1.05;;
42194;SDS011;27863;49.440;11.102;2022-09-16T10:02:39;1.85;;;1.38;;
42194;SDS011;27863;49.440;11.102;2022-09-16T10:05:41;1.90;;;1.77;;
42194;SDS011;27863;49.440;11.102;2022-09-16T10:08:48;2.95;;;1.50;;
42194;SDS011;27863;49.440;11.102;2022-09-16T10:11:51;2.25;;;1.52;;
42194;SDS011;27863;49.440;11.102;2022-09-16T10:14:56;1.45;;;1.20;;
42194;SDS011;27863;49.440;11.102;2022-09-16T10:17:58;2.53;;;1.27;;
42194;SDS011;27863;49.440;11.102;2022-09-16T10:27:33;2.85;;;1.20;;
42194;SDS011;27863;49.440;11.102;2022-09-16T10:30:44;1.30;;;1.10;;
42194;SDS011;27863;49.440;11.102;2022-09-16T10:33:47;2.70;;;1.33;;
42194;SDS011;27863;49.440;11.102;2022-09-16T10:36:57;2.03;;;1.20;;
42194;SDS011;27863;49.440;11.102;2022-09-16T10:39:58;1.40;;;1.30;;
42194;SDS011;27863;49.440;11.102;2022-09-16T10:43:02;1.85;;;1.10;;
42194;SDS011;27863;49.440;11.102;2022-09-16T10:46:03;4.55;;;1.77;;
42194;SDS011;27863;49.440;11.102;2022-09-16T10:49:08;1.55;;;1.42;;
42194;SDS011;27863;49.440;11.102;2022-09-16T10:52:16;3.78;;;2.15;;
42194;SDS011;27863;49.440;11.102;2022-09-16T10:55:29;1.48;;;1.27;;
42194;SDS011;27863;49.440;11.102;2022-09-16T10:58:35;2.63;;;1.40;;
42194;SDS011;27863;49.440;11.102;2022-09-16T11:21:45;5.60;;;2.00;;
42194;SDS011;27863;49.440;11.102;2022-09-16T11:38:09;2.90;;;1.30;;
42194;SDS011;27863;49.440;11.102;2022-09-16T11:41:36;4.18;;;1.95;;
42194;SDS011;27863;49.440;11.102;2022-09-16T11:57:48;1.88;;;1.10;;
42194;SDS011;27863;49.440;11.102;2022-09-16T12:00:52;3.80;;;1.52;;
42194;SDS011;27863;49.440;11.102;2022-09-16T12:03:58;2.33;;;1.40;;
42194;SDS011;27863;49.440;11.102;2022-09-16T12:10:42;2.72;;;1.50;;
42194;SDS011;27863;49.440;11.102;2022-09-16T12:13:51;3.00;;;1.50;;
42194;SDS011;27863;49.440;11.102;2022-09-16T12:20:02;2.15;;;1.95;;
42194;SDS011;27863;49.440;11.102;2022-09-16T12:26:24;2.22;;;1.42;;
42194;SDS011;27863;49.440;11.102;2022-09-16T12:35:57;7.95;;;1.77;;
42194;SDS011;27863;49.440;11.102;2022-09-16T12:39:02;3.63;;;1.60;;
42194;SDS011;27863;49.440;11.102;2022-09-16T12:42:36;3.45;;;2.15;;
42194;SDS011;27863;49.440;11.102;2022-09-16T13:03:14;1.88;;;1.77;;
42194;SDS011;27863;49.440;11.102;2022-09-16T13:06:21;2.28;;;1.63;;
42194;SDS011;27863;49.440;11.102;2022-09-16T13:09:42;2.22;;;1.38;;
42194;SDS011;27863;49.440;11.102;2022-09-16T13:12:53;3.05;;;1.60;;
42194;SDS011;27863;49.440;11.102;2022-09-16T13:15:56;3.25;;;1.83;;
42194;SDS011;27863;49.440;11.102;2022-09-16T13:22:29;3.30;;;1.73;;
42194;SDS011;27863;49.440;11.102;2022-09-16T13:25:49;2.50;;;1.55;;
42194;SDS011;27863;49.440;11.102;2022-09-16T13:28:55;3.17;;;2.17;;
42194;SDS011;27863;49.440;11.102;2022-09-16T13:31:58;3.90;;;3.20;;
42194;SDS011;27863;49.440;11.102;2022-09-16T13:35:00;4.30;;;2.22;;
42194;SDS011;27863;49.440;11.102;2022-09-16T13:47:38;3.10;;;2.08;;
42194;SDS011;27863;49.440;11.102;2022-09-16T13:50:55;4.50;;;4.10;;
42194;SDS011;27863;49.440;11.102;2022-09-16T13:53:57;3.45;;;2.00;;
42194;SDS011;27863;49.440;11.102;2022-09-16T14:00:21;9.15;;;2.17;;
42194;SDS011;27863;49.440;11.102;2022-09-16T14:07:03;2.88;;;1.80;;
42194;SDS011;27863;49.440;11.102;2022-09-16T14:10:12;7.38;;;2.22;;
42194;SDS011;27863;49.440;11.102;2022-09-16T14:13:24;1.75;;;1.30;;
42194;SDS011;27863;49.440;11.102;2022-09-16T14:16:44;2.22;;;1.30;;
42194;SDS011;27863;49.440;11.102;2022-09-16T14:19:46;5.07;;;1.90;;
42194;SDS011;27863;49.440;11.102;2022-09-16T14:22:58;5.45;;;4.95;;
42194;SDS011;27863;49.440;11.102;2022-09-16T14:26:14;5.10;;;3.70;;
42194;SDS011;27863;49.440;11.102;2022-09-16T14:29:22;1.63;;;1.52;;
42194;SDS011;27863;49.440;11.102;2022-09-16T14:32:33;4.03;;;2.22;;
42194;SDS011;27863;49.440;11.102;2022-09-16T14:35:35;3.42;;;1.90;;
42194;SDS011;27863;49.440;11.102;2022-09-16T14:38:37;3.65;;;2.33;;
42194;SDS011;27863;49.440;11.102;2022-09-16T14:41:42;3.88;;;2.45;;
42194;SDS011;27863;49.440;11.102;2022-09-16T14:44:46;3.97;;;2.95;;
42194;SDS011;27863;49.440;11.102;2022-09-16T14:47:50;2.33;;;2.13;;
42194;SDS011;27863;49.440;11.102;2022-09-16T14:50:52;2.80;;;2.30;;
42194;SDS011;27863;49.440;11.102;2022-09-16T14:53:53;3.75;;;1.98;;
42194;SDS011;27863;49.440;11.102;2022-09-16T14:56:59;3.45;;;1.95;;
42194;SDS011;27863;49.440;11.102;2022-09-16T15:00:03;5.35;;;2.40;;
42194;SDS011;27863;49.440;11.102;2022-09-16T15:03:12;4.10;;;2.70;;
42194;SDS011;27863;49.440;11.102;2022-09-16T15:06:39;4.82;;;2.38;;
42194;SDS011;27863;49.440;11.102;2022-09-16T15:09:46;3.60;;;1.95;;
42194;SDS011;27863;49.440;11.102;2022-09-16T15:13:03;2.97;;;1.67;;
42194;SDS011;27863;49.440;11.102;2022-09-16T15:16:14;2.60;;;1.67;;
42194;SDS011;27863;49.440;11.102;2022-09-16T15:19:36;1.67;;;1.58;;
42194;SDS011;27863;49.440;11.102;2022-09-16T15:22:39;3.95;;;2.13;;
42194;SDS011;27863;49.440;11.102;2022-09-16T15:25:49;4.15;;;2.55;;
42194;SDS011;27863;49.440;11.102;2022-09-16T15:29:00;8.95;;;6.10;;
42194;SDS011;27863;49.440;11.102;2022-09-16T15:32:17;3.88;;;3.28;;
42194;SDS011;27863;49.440;11.102;2022-09-16T15:35:22;4.18;;;2.35;;
42194;SDS011;27863;49.440;11.102;2022-09-16T15:38:34;4.18;;;2.28;;
42194;SDS011;27863;49.440;11.102;2022-09-16T15:41:35;3.00;;;1.80;;
42194;SDS011;27863;49.440;11.102;2022-09-16T15:44:35;3.95;;;2.75;;
42194;SDS011;27863;49.440;11.102;2022-09-16T15:47:45;4.65;;;2.70;;
42194;SDS011;27863;49.440;11.102;2022-09-16T15:51:02;2.92;;;2.30;;
42194;SDS011;27863;49.440;11.102;2022-09-16T15:54:19;6.30;;;2.22;;
42194;SDS011;27863;49.440;11.102;2022-09-16T15:57:41;6.35;;;2.13;;
42194;SDS011;27863;49.440;11.102;2022-09-16T16:00:54;7.78;;;2.53;;
42194;SDS011;27863;49.440;11.102;2022-09-16T16:03:57;3.03;;;2.53;;
42194;SDS011;27863;49.440;11.102;2022-09-16T16:07:00;9.48;;;5.38;;
42194;SDS011;27863;49.440;11.102;2022-09-16T16:10:15;5.15;;;4.65;;
42194;SDS011;27863;49.440;11.102;2022-09-16T16:13:23;2.58;;;1.63;;
42194;SDS011;27863;49.440;11.102;2022-09-16T16:16:24;2.65;;;1.65;;
42194;SDS011;27863;49.440;11.102;2022-09-16T16:19:25;1.80;;;1.23;;
42194;SDS011;27863;49.440;11.102;2022-09-16T16:22:25;12.40;;;5.68;;
42194;SDS011;27863;49.440;11.102;2022-09-16T16:25:26;1.52;;;0.70;;
42194;SDS011;27863;49.440;11.102;2022-09-16T16:28:27;1.88;;;1.02;;
42194;SDS011;27863;49.440;11.102;2022-09-16T16:31:27;1.17;;;0.80;;
42194;SDS011;27863;49.440;11.102;2022-09-16T16:34:31;1.50;;;0.77;;
42194;SDS011;27863;49.440;11.102;2022-09-16T16:37:33;1.95;;;1.13;;
42194;SDS011;27863;49.440;11.102;2022-09-16T16:40:33;3.25;;;1.70;;
42194;SDS011;27863;49.440;11.102;2022-09-16T16:43:34;1.58;;;1.23;;
42194;SDS011;27863;49.440;11.102;2022-09-16T16:46:35;3.28;;;1.60;;
42194;SDS011;27863;49.440;11.102;2022-09-16T16:49:35;2.13;;;1.27;;
42194;SDS011;27863;49.440;11.102;2022-09-16T16:52:36;1.70;;;1.35;;
42194;SDS011;27863;49.440;11.102;2022-09-16T16:55:37;1.05;;;0.85;;
42194;SDS011;27863;49.440;11.102;2022-09-16T16:58:38;5.22;;;3.85;;
42194;SDS011;27863;49.440;11.102;2022-09-16T17:01:41;6.10;;;5.53;;
42194;SDS011;27863;49.440;11.102;2022-09-16T17:04:41;5.30;;;3.10;;
42194;SDS011;27863;49.440;11.102;2022-09-16T17:07:43;2.42;;;1.35;;
42194;SDS011;27863;49.440;11.102;2022-09-16T17:10:43;2.22;;;1.20;;
42194;SDS011;27863;49.440;11.102;2022-09-16T17:13:46;3.95;;;0.88;;
42194;SDS011;27863;49.440;11.102;2022-09-16T17:16:51;5.73;;;4.07;;
42194;SDS011;27863;49.440;11.102;2022-09-16T17:19:53;3.38;;;1.70;;
42194;SDS011;27863;49.440;11.102;2022-09-16T17:22:54;1.45;;;1.10;;
42194;SDS011;27863;49.440;11.102;2022-09-16T17:25:55;2.05;;;1.30;;
42194;SDS011;27863;49.440;11.102;2022-09-16T17:28:56;1.73;;;0.90;;
42194;SDS011;27863;49.440;11.102;2022-09-16T17:31:56;0.90;;;0.77;;
42194;SDS011;27863;49.440;11.102;2022-09-16T17:34:59;1.10;;;1.00;;
42194;SDS011;27863;49.440;11.102;2022-09-16T17:38:00;1.57;;;1.03;;
42194;SDS011;27863;49.440;11.102;2022-09-16T17:44:03;1.87;;;1.50;;
42194;SDS011;27863;49.440;11.102;2022-09-16T17:47:05;2.37;;;1.70;;
42194;SDS011;27863;49.440;11.102;2022-09-16T17:50:05;2.83;;;1.70;;
42194;SDS011;27863;49.440;11.102;2022-09-16T17:53:06;3.23;;;1.90;;
42194;SDS011;27863;49.440;11.102;2022-09-16T17:56:08;3.37;;;1.87;;
42194;SDS011;27863;49.440;11.102;2022-09-16T17:59:11;3.27;;;1.73;;
42194;SDS011;27863;49.440;11.102;2022-09-16T18:02:12;3.03;;;1.50;;
42194;SDS011;27863;49.440;11.102;2022-09-16T18:05:13;1.63;;;1.43;;
42194;SDS011;27863;49.440;11.102;2022-09-16T18:08:13;1.10;;;1.00;;
42194;SDS011;27863;49.440;11.102;2022-09-16T18:11:14;4.47;;;1.77;;
42194;SDS011;27863;49.440;11.102;2022-09-16T18:14:15;2.03;;;1.30;;
42194;SDS011;27863;49.440;11.102;2022-09-16T18:17:16;1.83;;;1.47;;
42194;SDS011;27863;49.440;11.102;2022-09-16T18:20:17;3.37;;;2.13;;
42194;SDS011;27863;49.440;11.102;2022-09-16T18:23:18;3.97;;;1.30;;
42194;SDS011;27863;49.440;11.102;2022-09-16T18:26:19;1.87;;;1.67;;
42194;SDS011;27863;49.440;11.102;2022-09-16T18:29:20;3.47;;;1.87;;
42194;SDS011;27863;49.440;11.102;2022-09-16T18:32:20;3.17;;;2.43;;
42194;SDS011;27863;49.440;11.102;2022-09-16T18:35:21;1.80;;;1.70;;
42194;SDS011;27863;49.440;11.102;2022-09-16T18:38:21;5.17;;;2.50;;
42194;SDS011;27863;49.440;11.102;2022-09-16T18:41:22;3.67;;;1.87;;
42194;SDS011;27863;49.440;11.102;2022-09-16T18:44:28;1.73;;;1.40;;
42194;SDS011;27863;49.440;11.102;2022-09-16T18:47:28;1.60;;;1.50;;
42194;SDS011;27863;49.440;11.102;2022-09-16T18:50:29;2.57;;;2.20;;
42194;SDS011;27863;49.440;11.102;2022-09-16T18:53:30;2.20;;;1.13;;
42194;SDS011;27863;49.440;11.102;2022-09-16T18:56:31;2.00;;;1.80;;
42194;SDS011;27863;49.440;11.102;2022-09-16T18:59:33;2.63;;;1.17;;
42194;SDS011;27863;49.440;11.102;2022-09-16T19:02:36;1.73;;;1.53;;
42194;SDS011;27863;49.440;11.102;2022-09-16T19:05:37;3.17;;;2.77;;
42194;SDS011;27863;49.440;11.102;2022-09-16T19:08:37;2.53;;;2.27;;
42194;SDS011;27863;49.440;11.102;2022-09-16T19:11:38;2.23;;;2.03;;
42194;SDS011;27863;49.440;11.102;2022-09-16T19:14:39;2.13;;;1.67;;
42194;SDS011;27863;49.440;11.102;2022-09-16T19:17:40;5.07;;;2.57;;
42194;SDS011;27863;49.440;11.102;2022-09-16T19:20:41;3.00;;;2.10;;
42194;SDS011;27863;49.440;11.102;2022-09-16T19:23:43;5.03;;;3.77;;
42194;SDS011;27863;49.440;11.102;2022-09-16T19:26:46;4.67;;;2.17;;
42194;SDS011;27863;49.440;11.102;2022-09-16T19:29:47;12.83;;;8.37;;
42194;SDS011;27863;49.440;11.102;2022-09-16T19:32:49;4.10;;;2.93;;
42194;SDS011;27863;49.440;11.102;2022-09-16T19:35:49;3.87;;;2.80;;
42194;SDS011;27863;49.440;11.102;2022-09-16T19:38:50;3.30;;;1.70;;
42194;SDS011;27863;49.440;11.102;2022-09-16T19:41:51;2.87;;;1.77;;
42194;SDS011;27863;49.440;11.102;2022-09-16T19:44:51;4.97;;;2.33;;
42194;SDS011;27863;49.440;11.102;2022-09-16T19:47:52;2.90;;;2.00;;
42194;SDS011;27863;49.440;11.102;2022-09-16T19:50:52;3.97;;;1.80;;
42194;SDS011;27863;49.440;11.102;2022-09-16T19:53:53;4.70;;;1.90;;
42194;SDS011;27863;49.440;11.102;2022-09-16T19:56:54;2.03;;;1.83;;
42194;SDS011;27863;49.440;11.102;2022-09-16T19:59:55;2.60;;;1.80;;
42194;SDS011;27863;49.440;11.102;2022-09-16T20:02:55;7.00;;;6.40;;
42194;SDS011;27863;49.440;11.102;2022-09-16T20:06:00;2.67;;;2.43;;
42194;SDS011;27863;49.440;11.102;2022-09-16T20:09:03;2.70;;;2.03;;
42194;SDS011;27863;49.440;11.102;2022-09-16T20:12:05;2.37;;;2.10;;
42194;SDS011;27863;49.440;11.102;2022-09-16T20:15:06;4.93;;;2.37;;
42194;SDS011;27863;49.440;11.102;2022-09-16T20:18:07;2.47;;;2.27;;
42194;SDS011;27863;49.440;11.102;2022-09-16T20:21:11;2.53;;;2.33;;
42194;SDS011;27863;49.440;11.102;2022-09-16T20:24:14;3.57;;;2.63;;
42194;SDS011;27863;49.440;11.102;2022-09-16T20:27:17;2.67;;;2.43;;
42194;SDS011;27863;49.440;11.102;2022-09-16T20:30:17;6.00;;;2.60;;
42194;SDS011;27863;49.440;11.102;2022-09-16T20:33:18;3.13;;;2.80;;
42194;SDS011;27863;49.440;11.102;2022-09-16T20:36:19;3.40;;;2.23;;
42194;SDS011;27863;49.440;11.102;2022-09-16T20:39:21;3.13;;;1.90;;
42194;SDS011;27863;49.440;11.102;2022-09-16T20:42:21;3.03;;;2.73;;
42194;SDS011;27863;49.440;11.102;2022-09-16T20:45:22;5.60;;;2.83;;
42194;SDS011;27863;49.440;11.102;2022-09-16T20:48:22;3.87;;;2.53;;
42194;SDS011;27863;49.440;11.102;2022-09-16T20:51:24;3.77;;;2.30;;
42194;SDS011;27863;49.440;11.102;2022-09-16T20:54:26;4.13;;;2.17;;
42194;SDS011;27863;49.440;11.102;2022-09-16T20:57:28;2.60;;;2.40;;
42194;SDS011;27863;49.440;11.102;2022-09-16T21:00:28;1.73;;;1.63;;
42194;SDS011;27863;49.440;11.102;2022-09-16T21:03:32;1.80;;;1.50;;
42194;SDS011;27863;49.440;11.102;2022-09-16T21:06:33;2.13;;;1.20;;
42194;SDS011;27863;49.440;11.102;2022-09-16T21:09:33;1.30;;;1.20;;
42194;SDS011;27863;49.440;11.102;2022-09-16T21:12:36;1.07;;;1.00;;
42194;SDS011;27863;49.440;11.102;2022-09-16T21:15:39;1.47;;;1.20;;
42194;SDS011;27863;49.440;11.102;2022-09-16T21:18:39;1.40;;;1.30;;
42194;SDS011;27863;49.440;11.102;2022-09-16T21:21:41;0.90;;;0.90;;
42194;SDS011;27863;49.440;11.102;2022-09-16T21:24:43;1.30;;;0.80;;
42194;SDS011;27863;49.440;11.102;2022-09-16T21:27:43;1.10;;;1.00;;